createdAt,value
2022-12-23T00:01:09.188Z,4.27
2022-12-23T00:03:35.844Z,5.03
2022-12-23T00:06:08.985Z,5.07
2022-12-23T00:08:36.336Z,5.75
2022-12-23T00:11:05.552Z,5.53
2022-12-23T00:13:50.859Z,6.70
2022-12-23T00:16:17.592Z,5.60
2022-12-23T00:18:44.032Z,6.13
2022-12-23T00:21:13.994Z,6.53
2022-12-23T00:23:42.916Z,7.10
2022-12-23T00:26:15.615Z,6.23
2022-12-23T00:28:42.249Z,8.02
2022-12-23T00:31:09.572Z,7.20
2022-12-23T00:33:44.185Z,6.55
2022-12-23T00:36:13.134Z,6.25
2022-12-23T00:38:58.280Z,5.33
2022-12-23T00:41:43.681Z,5.70
2022-12-23T00:44:10.131Z,5.20
2022-12-23T00:46:37.076Z,4.28
2022-12-23T00:49:23.204Z,5.10
2022-12-23T00:51:49.697Z,4.67
2022-12-23T00:54:16.771Z,5.05
2022-12-23T00:56:43.325Z,5.72
2022-12-23T00:59:09.687Z,4.95
2022-12-23T01:01:54.865Z,5.25
2022-12-23T01:04:40.708Z,4.73
2022-12-23T01:07:07.195Z,4.00
2022-12-23T01:09:34.331Z,4.18
2022-12-23T01:12:00.821Z,4.60
2022-12-23T01:14:27.484Z,4.55
2022-12-23T01:16:53.950Z,3.53
2022-12-23T01:19:20.335Z,4.35
2022-12-23T01:21:46.805Z,3.40
2022-12-23T01:24:13.225Z,3.60
2022-12-23T01:26:39.676Z,3.13
2022-12-23T01:29:06.035Z,3.10
2022-12-23T01:31:32.524Z,2.25
2022-12-23T01:33:59.024Z,2.97
2022-12-23T01:36:25.482Z,3.50
2022-12-23T01:38:52.189Z,3.42
2022-12-23T01:41:46.477Z,3.93
2022-12-23T01:44:47.637Z,4.00
2022-12-23T01:47:23.794Z,4.55
2022-12-23T01:49:54.912Z,3.85
2022-12-23T01:52:22.495Z,3.70
2022-12-23T01:54:48.952Z,3.90
2022-12-23T01:57:15.641Z,4.35
2022-12-23T02:00:02.059Z,4.50
2022-12-23T02:02:50.081Z,4.53
2022-12-23T02:05:17.026Z,4.55
2022-12-23T02:08:02.648Z,4.40
2022-12-23T02:10:38.177Z,4.05
2022-12-23T02:13:23.691Z,4.32
2022-12-23T02:16:16.793Z,2.85
2022-12-23T02:18:59.271Z,3.72
2022-12-23T02:21:28.704Z,4.00
2022-12-23T02:24:32.677Z,3.65
2022-12-23T02:27:23.543Z,3.83
2022-12-23T02:30:04.947Z,3.83
2022-12-23T02:32:55.601Z,3.70
2022-12-23T02:35:31.876Z,4.70
2022-12-23T02:38:10.388Z,4.53
2022-12-23T02:41:01.722Z,4.22
2022-12-23T02:43:39.329Z,4.07
2022-12-23T02:46:30.551Z,3.63
2022-12-23T02:49:04.838Z,3.50
2022-12-23T02:51:36.638Z,3.97
2022-12-23T02:54:08.029Z,3.70
2022-12-23T02:56:38.071Z,3.80
2022-12-23T02:59:11.100Z,4.03
2022-12-23T03:01:38.797Z,3.60
2022-12-23T03:04:06.893Z,3.47
2022-12-23T03:06:41.596Z,3.45
2022-12-23T03:09:08.385Z,4.07
2022-12-23T03:11:46.972Z,4.10
2022-12-23T03:14:32.009Z,3.40
2022-12-23T03:17:04.516Z,3.80
2022-12-23T03:19:45.979Z,4.15
2022-12-23T03:22:34.765Z,3.88
2022-12-23T03:25:11.446Z,4.38
2022-12-23T03:28:01.516Z,2.90
2022-12-23T03:30:29.373Z,3.13
2022-12-23T03:33:01.683Z,2.90
2022-12-23T03:35:36.103Z,3.20
2022-12-23T03:38:03.944Z,3.60
2022-12-23T03:40:37.931Z,3.70
2022-12-23T03:43:09.657Z,3.35
2022-12-23T03:45:42.849Z,4.22
2022-12-23T03:48:37.537Z,3.83
2022-12-23T03:51:28.250Z,4.15
2022-12-23T03:54:01.528Z,3.80
2022-12-23T03:56:39.843Z,3.78
2022-12-23T03:59:21.418Z,3.63
2022-12-23T04:02:02.748Z,4.88
2022-12-23T04:04:41.161Z,4.10
2022-12-23T04:07:17.467Z,3.50
2022-12-23T04:09:44.829Z,3.83
2022-12-23T04:12:14.268Z,3.20
2022-12-23T04:14:47.574Z,4.50
2022-12-23T04:17:14.367Z,3.20
2022-12-23T04:19:42.021Z,3.70
2022-12-23T04:22:08.438Z,3.80
2022-12-23T04:24:34.833Z,3.50
2022-12-23T04:27:01.304Z,2.90
2022-12-23T04:29:27.700Z,2.47
2022-12-23T04:31:54.133Z,3.20
2022-12-23T04:34:20.594Z,2.53
2022-12-23T04:36:46.968Z,3.17
2022-12-23T04:39:13.468Z,3.67
2022-12-23T04:41:39.808Z,3.15
2022-12-23T04:44:07.436Z,2.73
2022-12-23T04:46:33.954Z,2.70
2022-12-23T04:49:00.374Z,3.10
2022-12-23T04:51:26.794Z,3.33
2022-12-23T04:53:53.236Z,3.40
2022-12-23T04:56:19.599Z,3.00
2022-12-23T04:58:46.018Z,2.95
2022-12-23T05:01:12.718Z,3.08
2022-12-23T05:03:39.814Z,2.65
2022-12-23T05:06:07.221Z,3.20
2022-12-23T05:08:33.870Z,3.10
2022-12-23T05:11:00.283Z,3.25
2022-12-23T05:13:26.939Z,3.35
2022-12-23T05:15:54.753Z,3.45
2022-12-23T05:18:22.024Z,3.10
2022-12-23T05:20:49.152Z,3.13
2022-12-23T05:23:15.514Z,3.33
2022-12-23T05:25:41.880Z,3.28
2022-12-23T05:28:09.473Z,3.42
2022-12-23T05:30:36.069Z,3.47
2022-12-23T05:33:02.680Z,3.50
2022-12-23T05:35:29.070Z,3.30
2022-12-23T05:37:55.596Z,3.13
2022-12-23T05:40:24.880Z,4.07
2022-12-23T05:42:54.041Z,3.85
2022-12-23T05:45:20.798Z,3.43
2022-12-23T05:47:47.203Z,3.22
2022-12-23T05:50:14.009Z,2.85
2022-12-23T05:52:40.520Z,2.85
2022-12-23T05:55:07.530Z,3.35
2022-12-23T05:57:33.850Z,2.67
2022-12-23T06:00:00.240Z,3.10
2022-12-23T06:02:26.813Z,3.10
2022-12-23T06:04:53.337Z,3.10
2022-12-23T06:07:19.696Z,2.58
2022-12-23T06:09:46.157Z,2.93
2022-12-23T06:12:12.972Z,2.80
2022-12-23T06:14:39.376Z,3.10
2022-12-23T06:17:05.850Z,2.72
2022-12-23T06:19:32.328Z,2.58
2022-12-23T06:21:58.705Z,2.60
2022-12-23T06:24:25.055Z,2.08
2022-12-23T06:26:56.807Z,2.75
2022-12-23T06:29:24.246Z,2.92
2022-12-23T06:31:50.758Z,2.83
2022-12-23T06:34:17.259Z,2.57
2022-12-23T06:36:43.712Z,2.95
2022-12-23T06:39:10.758Z,2.65
2022-12-23T06:41:37.165Z,3.30
2022-12-23T06:44:03.667Z,2.67
2022-12-23T06:46:30.119Z,3.17
2022-12-23T06:48:56.553Z,2.35
2022-12-23T06:51:22.896Z,3.25
2022-12-23T06:53:49.360Z,3.25
2022-12-23T06:56:15.763Z,3.25
2022-12-23T06:58:42.209Z,2.50
2022-12-23T07:01:10.093Z,3.22
2022-12-23T07:03:36.936Z,2.85
2022-12-23T07:06:03.621Z,2.80
2022-12-23T07:08:30.025Z,3.13
2022-12-23T07:11:04.927Z,3.53
2022-12-23T07:13:32.874Z,3.08
2022-12-23T07:15:59.634Z,2.80
2022-12-23T07:18:26.260Z,3.45
2022-12-23T07:20:52.704Z,3.55
2022-12-23T07:23:19.097Z,3.13
2022-12-23T07:25:45.599Z,3.05
2022-12-23T07:28:12.015Z,2.08
2022-12-23T07:30:38.552Z,2.78
2022-12-23T07:33:04.884Z,2.97
2022-12-23T07:35:31.212Z,2.93
2022-12-23T07:37:57.593Z,3.17
2022-12-23T07:40:25.238Z,3.30
2022-12-23T07:42:56.938Z,3.50
2022-12-23T07:45:24.218Z,3.38
2022-12-23T07:47:54.621Z,3.33
2022-12-23T07:50:21.431Z,3.35
2022-12-23T07:52:47.920Z,3.42
2022-12-23T07:55:14.728Z,3.85
2022-12-23T07:57:41.261Z,3.80
2022-12-23T08:00:11.990Z,3.80
2022-12-23T08:02:38.458Z,4.47
2022-12-23T08:05:05.732Z,4.60
2022-12-23T08:07:32.189Z,4.30
2022-12-23T08:09:58.580Z,4.45
2022-12-23T08:12:25.255Z,3.93
2022-12-23T08:14:52.617Z,4.60
2022-12-23T08:17:21.340Z,4.60
2022-12-23T08:19:48.968Z,4.82
2022-12-23T08:22:15.672Z,5.63
2022-12-23T08:24:42.145Z,5.33
2022-12-23T08:27:08.693Z,6.15
2022-12-23T08:29:36.594Z,7.10
2022-12-23T08:32:03.179Z,6.53
2022-12-23T08:34:29.537Z,7.35
2022-12-23T08:36:55.871Z,7.30
2022-12-23T08:39:22.365Z,6.57
2022-12-23T08:41:48.948Z,6.50
2022-12-23T08:44:16.800Z,7.13
2022-12-23T08:46:44.082Z,6.25
2022-12-23T08:49:10.596Z,6.50
2022-12-23T08:51:38.091Z,7.00
2022-12-23T08:54:05.479Z,7.10
2022-12-23T08:56:34.937Z,7.40
2022-12-23T08:59:01.413Z,7.30
2022-12-23T09:01:30.114Z,7.93
2022-12-23T09:03:57.223Z,7.40
2022-12-23T09:06:30.434Z,8.50
2022-12-23T09:08:58.130Z,8.55
2022-12-23T09:11:27.063Z,9.13
2022-12-23T09:13:54.057Z,8.60
2022-12-23T09:16:20.545Z,10.18
2022-12-23T09:18:47.087Z,8.60
2022-12-23T09:21:18.088Z,8.70
2022-12-23T09:23:44.495Z,8.13
2022-12-23T09:26:12.414Z,8.60
2022-12-23T09:28:39.619Z,8.25
2022-12-23T09:31:08.651Z,8.88
2022-12-23T09:33:35.711Z,8.73
2022-12-23T09:36:03.325Z,8.05
2022-12-23T09:38:29.798Z,8.30
2022-12-23T09:41:22.566Z,9.05
2022-12-23T09:44:03.315Z,8.73
2022-12-23T09:46:34.001Z,9.18
2022-12-23T09:49:10.631Z,8.02
2022-12-23T09:51:37.167Z,8.73
2022-12-23T09:54:23.323Z,9.23
2022-12-23T09:56:52.497Z,9.25
2022-12-23T09:59:42.363Z,9.98
2022-12-23T10:02:19.007Z,9.85
2022-12-23T10:05:02.803Z,8.27
2022-12-23T10:07:43.558Z,9.02
2022-12-23T10:10:46.928Z,9.20
2022-12-23T10:13:22.577Z,8.77
2022-12-23T10:15:52.463Z,8.05
2022-12-23T10:18:49.388Z,7.47
2022-12-23T10:21:31.346Z,8.35
2022-12-23T10:24:03.630Z,7.32
2022-12-23T10:26:41.558Z,7.80
2022-12-23T10:29:19.455Z,7.88
2022-12-23T10:32:16.928Z,7.23
2022-12-23T10:35:01.000Z,7.03
2022-12-23T10:37:35.141Z,7.38
2022-12-23T10:40:13.326Z,6.78
2022-12-23T10:42:49.629Z,7.70
2022-12-23T10:45:21.746Z,7.20
2022-12-23T10:47:52.638Z,6.32
2022-12-23T10:50:34.580Z,6.97
2022-12-23T10:53:04.577Z,7.57
2022-12-23T10:55:36.110Z,7.43
2022-12-23T10:58:08.805Z,6.87
2022-12-23T11:00:38.813Z,7.00
2022-12-23T11:03:27.777Z,6.60
2022-12-23T11:05:55.851Z,8.38
2022-12-23T11:08:24.233Z,8.00
2022-12-23T11:10:50.669Z,8.77
2022-12-23T11:13:32.435Z,8.18
2022-12-23T11:16:31.183Z,9.13
2022-12-23T11:19:15.016Z,9.40
2022-12-23T11:21:55.296Z,9.68
2022-12-23T11:24:23.001Z,9.13
2022-12-23T11:26:59.565Z,9.75
2022-12-23T11:29:35.447Z,9.38
2022-12-23T11:32:04.974Z,10.05
2022-12-23T11:34:38.360Z,9.98
2022-12-23T11:37:07.565Z,9.70
2022-12-23T11:39:37.082Z,11.35
2022-12-23T11:42:11.326Z,11.30
2022-12-23T11:44:37.628Z,12.40
2022-12-23T11:47:22.561Z,12.55
2022-12-23T11:49:57.496Z,11.70
2022-12-23T11:52:29.944Z,14.25
2022-12-23T11:55:01.918Z,13.23
2022-12-23T11:57:42.900Z,13.90
2022-12-23T12:00:20.494Z,13.88
2022-12-23T12:02:52.684Z,14.87
2022-12-23T12:05:31.361Z,16.17
2022-12-23T12:08:03.853Z,15.23
2022-12-23T12:10:33.341Z,14.80
2022-12-23T12:13:03.573Z,14.50
2022-12-23T12:15:44.137Z,13.97
2022-12-23T12:18:15.099Z,14.07
2022-12-23T12:20:48.416Z,14.02
2022-12-23T12:23:20.991Z,12.65
2022-12-23T12:25:55.295Z,14.18
2022-12-23T12:28:25.707Z,13.87
2022-12-23T12:31:11.599Z,12.75
2022-12-23T12:33:48.466Z,11.88
2022-12-23T12:36:30.132Z,12.30
2022-12-23T12:38:59.004Z,11.05
2022-12-23T12:41:38.395Z,11.40
2022-12-23T12:44:45.308Z,11.40
2022-12-23T12:47:36.743Z,9.80
2022-12-23T12:50:16.449Z,9.93
2022-12-23T12:52:43.359Z,10.63
2022-12-23T12:55:33.221Z,11.10
2022-12-23T12:58:02.604Z,10.63
2022-12-23T13:00:35.573Z,10.30
2022-12-23T13:03:24.934Z,10.52
2022-12-23T13:06:30.648Z,10.52
2022-12-23T13:09:34.832Z,9.93
2022-12-23T13:12:14.634Z,10.13
2022-12-23T13:15:11.660Z,10.13
2022-12-23T13:18:12.059Z,10.98
2022-12-23T13:21:06.444Z,10.27
2022-12-23T13:23:47.722Z,10.33
2022-12-23T13:26:17.713Z,10.20
2022-12-23T13:29:08.306Z,10.45
2022-12-23T13:31:50.196Z,10.93
2022-12-23T13:34:25.908Z,10.57
2022-12-23T13:37:16.953Z,9.73
2022-12-23T13:39:52.905Z,9.40
2022-12-23T13:42:32.438Z,9.98
2022-12-23T13:45:01.122Z,9.30
2022-12-23T13:48:05.554Z,8.57
2022-12-23T13:50:38.509Z,9.17
2022-12-23T13:53:21.843Z,8.25
2022-12-23T13:55:59.409Z,8.05
2022-12-23T13:58:28.568Z,9.10
2022-12-23T14:01:07.905Z,8.52
2022-12-23T14:03:36.300Z,8.87
2022-12-23T14:06:22.045Z,8.52
2022-12-23T14:08:49.633Z,7.85
2022-12-23T14:11:19.343Z,9.55
2022-12-23T14:13:51.916Z,9.68
2022-12-23T14:16:21.375Z,9.00
2022-12-23T14:19:03.092Z,9.63
2022-12-23T14:21:50.787Z,8.70
2022-12-23T14:24:39.057Z,8.45
2022-12-23T14:27:36.577Z,8.60
2022-12-23T14:30:14.329Z,8.33
2022-12-23T14:32:58.655Z,7.60
2022-12-23T14:35:27.847Z,7.95
2022-12-23T14:38:15.785Z,7.72
2022-12-23T14:40:42.120Z,8.55
2022-12-23T14:43:26.739Z,8.40
2022-12-23T14:45:58.033Z,7.00
2022-12-23T14:48:33.610Z,7.90
2022-12-23T14:51:20.954Z,8.57
2022-12-23T14:53:59.299Z,7.43
2022-12-23T14:56:41.032Z,7.27
2022-12-23T15:02:36.870Z,7.30
2022-12-23T15:05:03.846Z,6.40
2022-12-23T15:07:43.043Z,7.43
2022-12-23T15:10:21.612Z,5.53
2022-12-23T15:12:52.152Z,7.30
2022-12-23T15:15:22.443Z,6.80
2022-12-23T15:17:49.138Z,7.10
2022-12-23T15:20:20.109Z,7.53
2022-12-23T15:22:48.053Z,7.33
2022-12-23T15:25:24.390Z,6.47
2022-12-23T15:27:57.371Z,7.38
2022-12-23T15:30:30.359Z,6.85
2022-12-23T15:33:02.656Z,7.38
2022-12-23T15:35:33.388Z,6.57
2022-12-23T15:38:01.528Z,6.65
2022-12-23T15:41:13.347Z,7.03
2022-12-23T15:43:44.764Z,6.78
2022-12-23T15:46:29.371Z,6.40
2022-12-23T15:48:56.722Z,6.13
2022-12-23T15:54:22.487Z,5.70
2022-12-23T15:56:52.094Z,6.28
2022-12-23T15:59:25.419Z,5.97
2022-12-23T16:01:52.740Z,7.00
2022-12-23T16:04:24.991Z,7.10
2022-12-23T16:06:51.877Z,6.93
2022-12-23T16:09:19.043Z,7.55
2022-12-23T16:11:51.523Z,6.55
2022-12-23T16:14:32.783Z,7.17
2022-12-23T16:17:15.285Z,6.80
2022-12-23T16:19:49.944Z,6.88
2022-12-23T16:22:36.199Z,6.88
2022-12-23T16:25:11.817Z,6.40
2022-12-23T16:27:48.036Z,6.60
2022-12-23T16:30:18.301Z,6.55
2022-12-23T16:32:55.030Z,5.60
2022-12-23T16:35:38.025Z,5.50
2022-12-23T16:38:22.287Z,5.75
2022-12-23T16:40:56.637Z,5.40
2022-12-23T16:43:24.698Z,7.00
2022-12-23T16:45:54.411Z,6.03
2022-12-23T16:48:23.855Z,5.93
2022-12-23T16:50:52.363Z,5.78
2022-12-23T16:53:19.419Z,5.23
2022-12-23T16:55:52.452Z,5.55
2022-12-23T16:58:23.237Z,5.97
2022-12-23T17:00:50.609Z,6.30
2022-12-23T17:03:19.195Z,6.95
2022-12-23T17:05:47.011Z,7.17
2022-12-23T17:08:13.429Z,6.68
2022-12-23T17:10:42.275Z,7.07
2022-12-23T17:13:11.929Z,6.63
2022-12-23T17:15:38.616Z,7.28
2022-12-23T17:18:12.306Z,7.43
2022-12-23T17:20:38.823Z,7.65
2022-12-23T17:23:06.198Z,7.25
2022-12-23T17:25:32.560Z,6.65
2022-12-23T17:27:59.038Z,6.38
2022-12-23T17:30:25.676Z,6.37
2022-12-23T17:32:56.496Z,7.47
2022-12-23T17:35:24.684Z,7.78
2022-12-23T17:37:51.740Z,8.00
2022-12-23T17:40:18.312Z,7.70
2022-12-23T17:42:45.784Z,6.60
2022-12-23T17:45:24.364Z,7.40
2022-12-23T17:47:50.780Z,5.78
2022-12-23T17:50:17.235Z,6.00
2022-12-23T17:52:43.645Z,8.05
2022-12-23T17:55:36.244Z,6.37
2022-12-23T17:58:03.526Z,7.78
2022-12-23T18:00:34.338Z,7.97
2022-12-23T18:03:01.504Z,7.88
2022-12-23T18:05:30.519Z,4.53
2022-12-23T18:07:58.918Z,6.90
2022-12-23T18:10:28.608Z,7.40
2022-12-23T18:12:58.090Z,6.10
2022-12-23T18:15:35.600Z,7.05
2022-12-23T18:18:11.062Z,6.20
2022-12-23T18:20:37.539Z,5.03
2022-12-23T18:23:05.019Z,4.95
2022-12-23T18:25:31.704Z,5.18
2022-12-23T18:27:58.094Z,3.08
2022-12-23T18:30:24.453Z,5.43
2022-12-23T18:32:50.827Z,4.97
2022-12-23T18:35:32.954Z,4.60
2022-12-23T18:38:00.333Z,3.85
2022-12-23T18:40:32.732Z,3.42
2022-12-23T18:42:59.935Z,3.40
2022-12-23T18:45:31.927Z,4.03
2022-12-23T18:47:59.197Z,4.50
2022-12-23T18:50:26.618Z,3.88
2022-12-23T18:52:53.556Z,1.58
2022-12-23T18:55:20.512Z,3.35
2022-12-23T18:57:48.268Z,4.67
2022-12-23T19:00:18.431Z,3.90
2022-12-23T19:02:45.155Z,4.53
2022-12-23T19:05:26.816Z,2.35
2022-12-23T19:07:56.041Z,3.30
2022-12-23T19:10:25.862Z,3.07
2022-12-23T19:12:53.061Z,3.60
2022-12-23T19:15:20.614Z,3.10
2022-12-23T19:17:47.308Z,3.45
2022-12-23T19:20:15.751Z,3.17
2022-12-23T19:22:42.448Z,2.30
2022-12-23T19:25:11.549Z,2.65
2022-12-23T19:27:39.797Z,2.92
2022-12-23T19:30:08.343Z,2.15
2022-12-23T19:32:34.786Z,3.53
2022-12-23T19:35:01.185Z,2.93
2022-12-23T19:37:27.721Z,4.03
2022-12-23T19:39:54.153Z,3.40
2022-12-23T19:42:20.672Z,2.10
2022-12-23T19:44:47.096Z,3.38
2022-12-23T19:47:13.921Z,3.43
2022-12-23T19:49:40.273Z,2.65
2022-12-23T19:52:06.852Z,3.60
2022-12-23T19:54:33.317Z,4.88
2022-12-23T19:56:59.733Z,3.28
2022-12-23T19:59:26.303Z,2.87
2022-12-23T20:01:52.829Z,3.13
2022-12-23T20:04:19.377Z,2.60
2022-12-23T20:06:46.021Z,3.78
2022-12-23T20:09:13.483Z,3.75
2022-12-23T20:11:42.875Z,3.67
2022-12-23T20:14:09.443Z,4.68
2022-12-23T20:16:36.975Z,3.42
2022-12-23T20:19:03.993Z,3.10
2022-12-23T20:21:30.568Z,3.10
2022-12-23T20:23:57.115Z,2.53
2022-12-23T20:26:23.883Z,3.28
2022-12-23T20:28:50.971Z,3.10
2022-12-23T20:31:22.689Z,4.60
2022-12-23T20:33:50.910Z,2.83
2022-12-23T20:36:20.830Z,3.60
2022-12-23T20:38:47.820Z,2.70
2022-12-23T20:41:21.890Z,3.22
2022-12-23T20:44:02.694Z,2.80
2022-12-23T20:46:35.149Z,1.65
2022-12-23T20:49:01.587Z,2.97
2022-12-23T20:51:27.954Z,2.53
2022-12-23T20:53:59.820Z,1.40
2022-12-23T20:56:27.736Z,2.00
2022-12-23T20:58:55.129Z,2.47
2022-12-23T21:01:25.467Z,1.40
2022-12-23T21:03:52.670Z,1.85
2022-12-23T21:06:20.159Z,1.25
2022-12-23T21:08:46.912Z,2.13
2022-12-23T21:11:13.516Z,2.70
2022-12-23T21:13:40.379Z,1.10
2022-12-23T21:16:09.650Z,0.68
2022-12-23T21:18:40.402Z,1.73
2022-12-23T21:21:07.073Z,1.42
2022-12-23T21:23:36.855Z,1.52
2022-12-23T21:26:24.037Z,0.73
2022-12-23T21:28:52.445Z,1.42
2022-12-23T21:31:22.078Z,1.58
2022-12-23T21:33:50.412Z,1.75
2022-12-23T21:36:20.524Z,1.10
2022-12-23T21:38:48.876Z,1.67
2022-12-23T21:41:23.240Z,1.27
2022-12-23T21:43:50.091Z,1.73
2022-12-23T21:46:18.884Z,1.50
2022-12-23T21:48:45.957Z,1.63
2022-12-23T21:51:16.776Z,1.80
2022-12-23T21:53:45.247Z,1.73
2022-12-23T21:56:14.830Z,1.08
2022-12-23T21:58:41.740Z,2.17
2022-12-23T22:01:15.501Z,0.73
2022-12-23T22:03:42.673Z,0.80
2022-12-23T22:06:14.644Z,0.98
2022-12-23T22:08:41.461Z,1.85
2022-12-23T22:11:11.162Z,1.13
2022-12-23T22:13:37.962Z,1.08
2022-12-23T22:16:08.040Z,1.20
2022-12-23T22:18:34.522Z,1.02
2022-12-23T22:21:05.215Z,2.10
2022-12-23T22:23:31.610Z,0.77
2022-12-23T22:25:58.021Z,0.90
2022-12-23T22:28:24.355Z,1.33
2022-12-23T22:30:50.793Z,0.60
2022-12-23T22:33:17.294Z,1.33
2022-12-23T22:35:43.863Z,1.10
2022-12-23T22:38:10.263Z,2.42
2022-12-23T22:40:36.583Z,1.40
2022-12-23T22:43:03.081Z,1.98
2022-12-23T22:45:29.564Z,1.42
2022-12-23T22:47:56.013Z,1.00
2022-12-23T22:50:22.464Z,0.82
2022-12-23T22:52:48.854Z,1.63
2022-12-23T22:55:15.311Z,0.65
2022-12-23T22:57:41.711Z,0.90
2022-12-23T23:00:12.579Z,0.93
2022-12-23T23:02:39.432Z,1.38
2022-12-23T23:05:12.345Z,1.23
2022-12-23T23:07:39.181Z,1.50
2022-12-23T23:10:06.228Z,1.17
2022-12-23T23:12:32.676Z,1.38
2022-12-23T23:14:59.071Z,1.92
2022-12-23T23:17:27.361Z,0.50
2022-12-23T23:19:54.371Z,1.40
2022-12-23T23:22:22.384Z,1.85
2022-12-23T23:24:49.218Z,2.80
2022-12-23T23:27:15.761Z,1.00
2022-12-23T23:29:42.510Z,2.10
2022-12-23T23:32:09.872Z,1.60
2022-12-23T23:34:37.008Z,1.27
2022-12-23T23:37:04.700Z,1.17
2022-12-23T23:39:31.085Z,1.52
2022-12-23T23:41:57.429Z,1.90
2022-12-23T23:44:23.806Z,1.63
2022-12-23T23:46:50.250Z,0.47
2022-12-23T23:49:16.713Z,1.20
2022-12-23T23:51:43.226Z,0.47
2022-12-23T23:54:10.385Z,1.53
2022-12-23T23:56:39.215Z,1.65
2022-12-23T23:59:07.074Z,1.38
